Terminal Aerodrome Forecast
Issued by NWS

Current Version | Previous Version | Graphics & Text | Print | Product List | Glossary On
Versions: 1 2 3 4 5 6 7 8 9 10 11 12 13 14 15 16 17 18 19 20 21
772
FTUS41 KPBZ 261721
TAFMGW
TAF
KMGW 261721Z 2618/2718 16002KT P6SM SCT250
     FM271000 00000KT 4SM HZ BR BKN250
     FM271400 23002KT 5SM HZ OVC100=

USA.gov is the U.S. government's official web portal to all federal, state and local government web resources and services.